sensor_id;sensor_type;location;lat;lon;timestamp;P1;durP1;ratioP1;P2;durP2;ratioP2
12689;SDS011;6409;56.294;14.480;2023-12-22T00:01:55;2.47;;;2.37;;
12689;SDS011;6409;56.294;14.480;2023-12-22T00:04:24;2.50;;;2.40;;
12689;SDS011;6409;56.294;14.480;2023-12-22T00:06:51;2.70;;;2.60;;
12689;SDS011;6409;56.294;14.480;2023-12-22T00:09:19;2.60;;;2.50;;
12689;SDS011;6409;56.294;14.480;2023-12-22T00:11:47;2.50;;;2.40;;
12689;SDS011;6409;56.294;14.480;2023-12-22T00:14:14;2.73;;;2.63;;
12689;SDS011;6409;56.294;14.480;2023-12-22T00:16:41;2.70;;;2.60;;
12689;SDS011;6409;56.294;14.480;2023-12-22T00:19:08;2.80;;;2.70;;
12689;SDS011;6409;56.294;14.480;2023-12-22T00:21:36;2.60;;;2.50;;
12689;SDS011;6409;56.294;14.480;2023-12-22T00:24:04;2.90;;;2.80;;
12689;SDS011;6409;56.294;14.480;2023-12-22T00:26:31;2.90;;;2.80;;
12689;SDS011;6409;56.294;14.480;2023-12-22T00:28:58;2.80;;;2.70;;
12689;SDS011;6409;56.294;14.480;2023-12-22T00:31:25;2.70;;;2.60;;
12689;SDS011;6409;56.294;14.480;2023-12-22T00:33:52;3.00;;;2.90;;
12689;SDS011;6409;56.294;14.480;2023-12-22T00:36:19;2.90;;;2.80;;
12689;SDS011;6409;56.294;14.480;2023-12-22T00:38:50;2.90;;;2.80;;
12689;SDS011;6409;56.294;14.480;2023-12-22T00:41:18;2.90;;;2.80;;
12689;SDS011;6409;56.294;14.480;2023-12-22T00:43:45;2.90;;;2.80;;
12689;SDS011;6409;56.294;14.480;2023-12-22T00:46:12;2.70;;;2.60;;
12689;SDS011;6409;56.294;14.480;2023-12-22T00:48:39;2.50;;;2.40;;
12689;SDS011;6409;56.294;14.480;2023-12-22T00:51:07;2.63;;;2.53;;
12689;SDS011;6409;56.294;14.480;2023-12-22T00:53:34;2.60;;;2.50;;
12689;SDS011;6409;56.294;14.480;2023-12-22T00:56:03;2.40;;;2.30;;
12689;SDS011;6409;56.294;14.480;2023-12-22T00:58:31;2.50;;;2.40;;
12689;SDS011;6409;56.294;14.480;2023-12-22T01:00:58;2.80;;;2.70;;
12689;SDS011;6409;56.294;14.480;2023-12-22T01:03:25;2.20;;;2.20;;
12689;SDS011;6409;56.294;14.480;2023-12-22T01:05:52;2.60;;;2.50;;
12689;SDS011;6409;56.294;14.480;2023-12-22T01:08:19;2.30;;;2.30;;
12689;SDS011;6409;56.294;14.480;2023-12-22T01:10:46;2.57;;;2.47;;
12689;SDS011;6409;56.294;14.480;2023-12-22T01:13:15;2.23;;;2.23;;
12689;SDS011;6409;56.294;14.480;2023-12-22T01:15:42;2.60;;;2.50;;
12689;SDS011;6409;56.294;14.480;2023-12-22T01:18:10;2.40;;;2.30;;
12689;SDS011;6409;56.294;14.480;2023-12-22T01:20:37;2.40;;;2.30;;
12689;SDS011;6409;56.294;14.480;2023-12-22T01:23:04;2.60;;;2.50;;
12689;SDS011;6409;56.294;14.480;2023-12-22T01:25:31;2.70;;;2.60;;
12689;SDS011;6409;56.294;14.480;2023-12-22T01:27:58;2.60;;;2.50;;
12689;SDS011;6409;56.294;14.480;2023-12-22T01:30:27;2.10;;;2.10;;
12689;SDS011;6409;56.294;14.480;2023-12-22T01:32:54;2.30;;;2.30;;
12689;SDS011;6409;56.294;14.480;2023-12-22T01:35:21;2.50;;;2.40;;
12689;SDS011;6409;56.294;14.480;2023-12-22T01:37:48;2.30;;;2.30;;
12689;SDS011;6409;56.294;14.480;2023-12-22T01:40:16;2.20;;;2.20;;
12689;SDS011;6409;56.294;14.480;2023-12-22T01:42:43;2.33;;;2.30;;
12689;SDS011;6409;56.294;14.480;2023-12-22T01:45:10;1.70;;;1.70;;
12689;SDS011;6409;56.294;14.480;2023-12-22T01:47:39;1.40;;;1.40;;
12689;SDS011;6409;56.294;14.480;2023-12-22T01:50:06;1.80;;;1.80;;
12689;SDS011;6409;56.294;14.480;2023-12-22T01:52:35;2.30;;;2.30;;
12689;SDS011;6409;56.294;14.480;2023-12-22T01:55:03;2.20;;;2.20;;
12689;SDS011;6409;56.294;14.480;2023-12-22T01:57:31;2.50;;;2.40;;
12689;SDS011;6409;56.294;14.480;2023-12-22T02:00:00;2.70;;;2.60;;
12689;SDS011;6409;56.294;14.480;2023-12-22T02:02:27;2.60;;;2.50;;
12689;SDS011;6409;56.294;14.480;2023-12-22T02:04:55;2.73;;;2.63;;
12689;SDS011;6409;56.294;14.480;2023-12-22T02:07:23;2.67;;;2.57;;
12689;SDS011;6409;56.294;14.480;2023-12-22T02:09:50;2.70;;;2.60;;
12689;SDS011;6409;56.294;14.480;2023-12-22T02:12:17;2.60;;;2.50;;
12689;SDS011;6409;56.294;14.480;2023-12-22T02:14:44;2.53;;;2.43;;
12689;SDS011;6409;56.294;14.480;2023-12-22T02:17:14;2.60;;;2.50;;
12689;SDS011;6409;56.294;14.480;2023-12-22T02:19:47;2.40;;;2.30;;
12689;SDS011;6409;56.294;14.480;2023-12-22T02:22:16;2.50;;;2.40;;
12689;SDS011;6409;56.294;14.480;2023-12-22T02:24:45;2.33;;;2.30;;
12689;SDS011;6409;56.294;14.480;2023-12-22T02:27:15;2.70;;;2.60;;
12689;SDS011;6409;56.294;14.480;2023-12-22T02:29:49;2.60;;;2.50;;
12689;SDS011;6409;56.294;14.480;2023-12-22T02:32:21;2.37;;;2.30;;
12689;SDS011;6409;56.294;14.480;2023-12-22T02:34:50;2.40;;;2.30;;
12689;SDS011;6409;56.294;14.480;2023-12-22T02:37:18;2.67;;;2.57;;
12689;SDS011;6409;56.294;14.480;2023-12-22T02:39:48;2.20;;;2.20;;
12689;SDS011;6409;56.294;14.480;2023-12-22T02:42:15;2.50;;;2.40;;
12689;SDS011;6409;56.294;14.480;2023-12-22T02:44:45;2.70;;;2.60;;
12689;SDS011;6409;56.294;14.480;2023-12-22T02:47:12;2.50;;;2.40;;
12689;SDS011;6409;56.294;14.480;2023-12-22T02:49:39;2.63;;;2.53;;
12689;SDS011;6409;56.294;14.480;2023-12-22T02:52:06;2.50;;;2.40;;
12689;SDS011;6409;56.294;14.480;2023-12-22T02:54:33;2.60;;;2.50;;
12689;SDS011;6409;56.294;14.480;2023-12-22T02:57:02;2.50;;;2.40;;
12689;SDS011;6409;56.294;14.480;2023-12-22T02:59:29;2.30;;;2.30;;
12689;SDS011;6409;56.294;14.480;2023-12-22T03:01:56;2.50;;;2.40;;
12689;SDS011;6409;56.294;14.480;2023-12-22T03:04:23;2.60;;;2.50;;
12689;SDS011;6409;56.294;14.480;2023-12-22T03:06:51;2.70;;;2.60;;
12689;SDS011;6409;56.294;14.480;2023-12-22T03:09:18;2.80;;;2.70;;
12689;SDS011;6409;56.294;14.480;2023-12-22T03:11:45;2.67;;;2.57;;
12689;SDS011;6409;56.294;14.480;2023-12-22T03:14:13;2.80;;;2.70;;
12689;SDS011;6409;56.294;14.480;2023-12-22T03:16:41;2.80;;;2.70;;
12689;SDS011;6409;56.294;14.480;2023-12-22T03:19:08;2.70;;;2.60;;
12689;SDS011;6409;56.294;14.480;2023-12-22T03:21:35;2.70;;;2.60;;
12689;SDS011;6409;56.294;14.480;2023-12-22T03:24:02;2.67;;;2.57;;
12689;SDS011;6409;56.294;14.480;2023-12-22T03:26:29;2.60;;;2.50;;
12689;SDS011;6409;56.294;14.480;2023-12-22T03:28:56;2.80;;;2.70;;
12689;SDS011;6409;56.294;14.480;2023-12-22T03:31:25;3.10;;;3.00;;
12689;SDS011;6409;56.294;14.480;2023-12-22T03:33:52;2.90;;;2.80;;
12689;SDS011;6409;56.294;14.480;2023-12-22T03:36:19;3.10;;;3.00;;
12689;SDS011;6409;56.294;14.480;2023-12-22T03:38:46;2.60;;;2.50;;
12689;SDS011;6409;56.294;14.480;2023-12-22T03:41:13;2.70;;;2.60;;
12689;SDS011;6409;56.294;14.480;2023-12-22T03:43:40;2.57;;;2.47;;
12689;SDS011;6409;56.294;14.480;2023-12-22T03:46:07;2.80;;;2.70;;
12689;SDS011;6409;56.294;14.480;2023-12-22T03:48:36;2.77;;;2.67;;
12689;SDS011;6409;56.294;14.480;2023-12-22T03:51:03;2.80;;;2.70;;
12689;SDS011;6409;56.294;14.480;2023-12-22T03:53:30;2.50;;;2.40;;
12689;SDS011;6409;56.294;14.480;2023-12-22T03:55:58;2.60;;;2.50;;
12689;SDS011;6409;56.294;14.480;2023-12-22T03:58:25;2.80;;;2.70;;
12689;SDS011;6409;56.294;14.480;2023-12-22T04:00:52;2.87;;;2.77;;
12689;SDS011;6409;56.294;14.480;2023-12-22T04:03:19;2.80;;;2.70;;
12689;SDS011;6409;56.294;14.480;2023-12-22T04:05:47;2.80;;;2.70;;
12689;SDS011;6409;56.294;14.480;2023-12-22T04:08:14;2.80;;;2.70;;
12689;SDS011;6409;56.294;14.480;2023-12-22T04:10:42;3.00;;;2.90;;
12689;SDS011;6409;56.294;14.480;2023-12-22T04:13:09;2.80;;;2.70;;
12689;SDS011;6409;56.294;14.480;2023-12-22T04:15:36;2.70;;;2.60;;
12689;SDS011;6409;56.294;14.480;2023-12-22T04:18:04;2.80;;;2.70;;
12689;SDS011;6409;56.294;14.480;2023-12-22T04:20:31;2.80;;;2.70;;
12689;SDS011;6409;56.294;14.480;2023-12-22T04:23:00;2.60;;;2.50;;
12689;SDS011;6409;56.294;14.480;2023-12-22T04:25:27;2.80;;;2.70;;
12689;SDS011;6409;56.294;14.480;2023-12-22T04:27:54;2.80;;;2.70;;
12689;SDS011;6409;56.294;14.480;2023-12-22T04:30:21;2.53;;;2.43;;
12689;SDS011;6409;56.294;14.480;2023-12-22T04:32:48;2.90;;;2.80;;
12689;SDS011;6409;56.294;14.480;2023-12-22T04:35:15;2.00;;;2.00;;
12689;SDS011;6409;56.294;14.480;2023-12-22T04:37:42;2.40;;;2.30;;
12689;SDS011;6409;56.294;14.480;2023-12-22T04:40:11;2.80;;;2.70;;
12689;SDS011;6409;56.294;14.480;2023-12-22T04:42:39;2.50;;;2.40;;
12689;SDS011;6409;56.294;14.480;2023-12-22T04:45:06;2.60;;;2.50;;
12689;SDS011;6409;56.294;14.480;2023-12-22T04:47:34;2.60;;;2.50;;
12689;SDS011;6409;56.294;14.480;2023-12-22T04:50:01;2.60;;;2.50;;
12689;SDS011;6409;56.294;14.480;2023-12-22T04:52:28;2.70;;;2.60;;
12689;SDS011;6409;56.294;14.480;2023-12-22T04:54:55;1.70;;;1.70;;
12689;SDS011;6409;56.294;14.480;2023-12-22T04:57:24;1.80;;;1.80;;
12689;SDS011;6409;56.294;14.480;2023-12-22T04:59:51;2.10;;;2.10;;
12689;SDS011;6409;56.294;14.480;2023-12-22T05:02:18;2.40;;;2.30;;
12689;SDS011;6409;56.294;14.480;2023-12-22T05:04:45;2.50;;;2.40;;
12689;SDS011;6409;56.294;14.480;2023-12-22T05:07:12;2.70;;;2.60;;
12689;SDS011;6409;56.294;14.480;2023-12-22T05:09:40;2.60;;;2.50;;
12689;SDS011;6409;56.294;14.480;2023-12-22T05:12:08;3.00;;;2.90;;
12689;SDS011;6409;56.294;14.480;2023-12-22T05:14:37;3.20;;;3.10;;
12689;SDS011;6409;56.294;14.480;2023-12-22T05:17:04;3.30;;;3.20;;
12689;SDS011;6409;56.294;14.480;2023-12-22T05:19:31;3.30;;;3.20;;
12689;SDS011;6409;56.294;14.480;2023-12-22T05:21:58;3.10;;;3.00;;
12689;SDS011;6409;56.294;14.480;2023-12-22T05:24:25;3.67;;;3.57;;
12689;SDS011;6409;56.294;14.480;2023-12-22T05:26:52;3.10;;;3.00;;
12689;SDS011;6409;56.294;14.480;2023-12-22T05:29:19;3.40;;;3.30;;
12689;SDS011;6409;56.294;14.480;2023-12-22T05:31:48;3.90;;;3.80;;
12689;SDS011;6409;56.294;14.480;2023-12-22T05:34:15;3.20;;;3.10;;
12689;SDS011;6409;56.294;14.480;2023-12-22T05:36:42;2.90;;;2.80;;
12689;SDS011;6409;56.294;14.480;2023-12-22T05:39:10;2.90;;;2.80;;
12689;SDS011;6409;56.294;14.480;2023-12-22T05:41:37;3.10;;;3.00;;
12689;SDS011;6409;56.294;14.480;2023-12-22T05:44:04;3.00;;;2.90;;
12689;SDS011;6409;56.294;14.480;2023-12-22T05:46:35;2.70;;;2.60;;
12689;SDS011;6409;56.294;14.480;2023-12-22T05:49:04;2.50;;;2.40;;
12689;SDS011;6409;56.294;14.480;2023-12-22T05:51:35;2.70;;;2.60;;
12689;SDS011;6409;56.294;14.480;2023-12-22T05:54:04;2.00;;;2.00;;
12689;SDS011;6409;56.294;14.480;2023-12-22T05:56:31;1.50;;;1.50;;
12689;SDS011;6409;56.294;14.480;2023-12-22T05:58:59;2.20;;;2.20;;
12689;SDS011;6409;56.294;14.480;2023-12-22T06:01:26;2.30;;;2.30;;
12689;SDS011;6409;56.294;14.480;2023-12-22T06:03:53;2.50;;;2.40;;
12689;SDS011;6409;56.294;14.480;2023-12-22T06:06:21;2.60;;;2.50;;
12689;SDS011;6409;56.294;14.480;2023-12-22T06:08:49;2.70;;;2.60;;
12689;SDS011;6409;56.294;14.480;2023-12-22T06:11:16;2.67;;;2.57;;
12689;SDS011;6409;56.294;14.480;2023-12-22T06:13:43;2.90;;;2.80;;
12689;SDS011;6409;56.294;14.480;2023-12-22T06:16:11;2.50;;;2.40;;
12689;SDS011;6409;56.294;14.480;2023-12-22T06:18:39;2.80;;;2.70;;
12689;SDS011;6409;56.294;14.480;2023-12-22T06:21:06;2.90;;;2.80;;
12689;SDS011;6409;56.294;14.480;2023-12-22T06:23:35;2.60;;;2.50;;
12689;SDS011;6409;56.294;14.480;2023-12-22T06:26:07;2.60;;;2.50;;
12689;SDS011;6409;56.294;14.480;2023-12-22T06:28:35;2.80;;;2.70;;
12689;SDS011;6409;56.294;14.480;2023-12-22T06:31:03;2.00;;;2.00;;
12689;SDS011;6409;56.294;14.480;2023-12-22T06:33:30;2.40;;;2.30;;
12689;SDS011;6409;56.294;14.480;2023-12-22T06:35:57;2.80;;;2.70;;
12689;SDS011;6409;56.294;14.480;2023-12-22T06:38:24;2.50;;;2.40;;
12689;SDS011;6409;56.294;14.480;2023-12-22T06:40:54;2.80;;;2.70;;
12689;SDS011;6409;56.294;14.480;2023-12-22T06:43:21;2.80;;;2.70;;
12689;SDS011;6409;56.294;14.480;2023-12-22T06:45:49;1.90;;;1.90;;
12689;SDS011;6409;56.294;14.480;2023-12-22T06:48:20;2.10;;;2.10;;
12689;SDS011;6409;56.294;14.480;2023-12-22T06:50:47;1.80;;;1.80;;
12689;SDS011;6409;56.294;14.480;2023-12-22T06:53:14;1.30;;;1.30;;
12689;SDS011;6409;56.294;14.480;2023-12-22T06:55:41;1.70;;;1.70;;
12689;SDS011;6409;56.294;14.480;2023-12-22T06:58:11;1.90;;;1.90;;
12689;SDS011;6409;56.294;14.480;2023-12-22T07:00:40;2.00;;;2.00;;
12689;SDS011;6409;56.294;14.480;2023-12-22T07:03:08;1.80;;;1.80;;
12689;SDS011;6409;56.294;14.480;2023-12-22T07:05:38;2.00;;;2.00;;
12689;SDS011;6409;56.294;14.480;2023-12-22T07:08:06;2.30;;;2.30;;
12689;SDS011;6409;56.294;14.480;2023-12-22T07:10:34;2.20;;;2.20;;
12689;SDS011;6409;56.294;14.480;2023-12-22T07:13:02;2.10;;;2.10;;
12689;SDS011;6409;56.294;14.480;2023-12-22T07:15:32;2.10;;;2.10;;
12689;SDS011;6409;56.294;14.480;2023-12-22T07:18:00;2.13;;;2.13;;
12689;SDS011;6409;56.294;14.480;2023-12-22T07:20:29;1.80;;;1.80;;
12689;SDS011;6409;56.294;14.480;2023-12-22T07:22:56;2.10;;;2.10;;
12689;SDS011;6409;56.294;14.480;2023-12-22T07:25:24;2.50;;;2.40;;
12689;SDS011;6409;56.294;14.480;2023-12-22T07:27:51;2.00;;;2.00;;
12689;SDS011;6409;56.294;14.480;2023-12-22T07:30:19;2.10;;;2.10;;
12689;SDS011;6409;56.294;14.480;2023-12-22T07:32:48;2.00;;;2.00;;
12689;SDS011;6409;56.294;14.480;2023-12-22T07:35:17;2.50;;;2.40;;
12689;SDS011;6409;56.294;14.480;2023-12-22T07:37:44;2.90;;;2.80;;
12689;SDS011;6409;56.294;14.480;2023-12-22T07:40:11;2.73;;;2.63;;
12689;SDS011;6409;56.294;14.480;2023-12-22T07:42:38;2.70;;;2.60;;
12689;SDS011;6409;56.294;14.480;2023-12-22T07:45:06;2.80;;;2.70;;
12689;SDS011;6409;56.294;14.480;2023-12-22T07:47:34;2.80;;;2.70;;
12689;SDS011;6409;56.294;14.480;2023-12-22T07:50:04;2.93;;;2.83;;
12689;SDS011;6409;56.294;14.480;2023-12-22T07:52:34;2.80;;;2.70;;
12689;SDS011;6409;56.294;14.480;2023-12-22T07:55:04;3.20;;;3.10;;
12689;SDS011;6409;56.294;14.480;2023-12-22T07:57:32;3.10;;;3.00;;
12689;SDS011;6409;56.294;14.480;2023-12-22T07:59:59;3.07;;;2.97;;
12689;SDS011;6409;56.294;14.480;2023-12-22T08:02:26;3.30;;;3.20;;
12689;SDS011;6409;56.294;14.480;2023-12-22T08:04:53;3.10;;;3.00;;
12689;SDS011;6409;56.294;14.480;2023-12-22T08:07:22;2.70;;;2.60;;
12689;SDS011;6409;56.294;14.480;2023-12-22T08:09:49;3.30;;;3.20;;
12689;SDS011;6409;56.294;14.480;2023-12-22T08:12:15;2.90;;;2.80;;
12689;SDS011;6409;56.294;14.480;2023-12-22T08:14:42;3.40;;;3.30;;
12689;SDS011;6409;56.294;14.480;2023-12-22T08:17:09;3.20;;;3.10;;
12689;SDS011;6409;56.294;14.480;2023-12-22T08:19:38;2.60;;;2.50;;
12689;SDS011;6409;56.294;14.480;2023-12-22T08:22:08;2.90;;;2.80;;
12689;SDS011;6409;56.294;14.480;2023-12-22T08:24:37;2.90;;;2.80;;
12689;SDS011;6409;56.294;14.480;2023-12-22T08:27:04;2.90;;;2.80;;
12689;SDS011;6409;56.294;14.480;2023-12-22T08:29:32;2.90;;;2.80;;
12689;SDS011;6409;56.294;14.480;2023-12-22T08:32:00;3.00;;;2.90;;
12689;SDS011;6409;56.294;14.480;2023-12-22T08:34:27;3.00;;;2.90;;
12689;SDS011;6409;56.294;14.480;2023-12-22T08:36:54;2.90;;;2.80;;
12689;SDS011;6409;56.294;14.480;2023-12-22T08:39:21;3.10;;;3.00;;
12689;SDS011;6409;56.294;14.480;2023-12-22T08:41:51;3.20;;;3.10;;
12689;SDS011;6409;56.294;14.480;2023-12-22T08:44:19;2.80;;;2.70;;
12689;SDS011;6409;56.294;14.480;2023-12-22T08:46:46;3.00;;;2.90;;
12689;SDS011;6409;56.294;14.480;2023-12-22T08:49:13;3.00;;;2.90;;
12689;SDS011;6409;56.294;14.480;2023-12-22T08:51:40;2.90;;;2.80;;
12689;SDS011;6409;56.294;14.480;2023-12-22T08:54:08;2.60;;;2.50;;
12689;SDS011;6409;56.294;14.480;2023-12-22T08:56:35;2.83;;;2.73;;
12689;SDS011;6409;56.294;14.480;2023-12-22T08:59:03;2.60;;;2.50;;
12689;SDS011;6409;56.294;14.480;2023-12-22T09:01:30;3.10;;;3.00;;
12689;SDS011;6409;56.294;14.480;2023-12-22T09:03:58;3.10;;;3.00;;
12689;SDS011;6409;56.294;14.480;2023-12-22T09:06:25;2.90;;;2.80;;
12689;SDS011;6409;56.294;14.480;2023-12-22T09:08:52;3.13;;;3.03;;
12689;SDS011;6409;56.294;14.480;2023-12-22T09:11:19;3.00;;;2.90;;
12689;SDS011;6409;56.294;14.480;2023-12-22T09:13:47;3.00;;;2.90;;
12689;SDS011;6409;56.294;14.480;2023-12-22T09:16:20;2.70;;;2.60;;
12689;SDS011;6409;56.294;14.480;2023-12-22T09:18:47;2.50;;;2.40;;
12689;SDS011;6409;56.294;14.480;2023-12-22T09:21:15;2.80;;;2.70;;
12689;SDS011;6409;56.294;14.480;2023-12-22T09:23:43;2.80;;;2.70;;
12689;SDS011;6409;56.294;14.480;2023-12-22T09:26:11;2.23;;;2.23;;
12689;SDS011;6409;56.294;14.480;2023-12-22T09:28:39;2.40;;;2.30;;
12689;SDS011;6409;56.294;14.480;2023-12-22T09:31:06;2.70;;;2.60;;
12689;SDS011;6409;56.294;14.480;2023-12-22T09:33:34;2.70;;;2.60;;
12689;SDS011;6409;56.294;14.480;2023-12-22T09:36:02;2.60;;;2.50;;
12689;SDS011;6409;56.294;14.480;2023-12-22T09:38:29;2.90;;;2.80;;
12689;SDS011;6409;56.294;14.480;2023-12-22T09:40:57;2.80;;;2.70;;
12689;SDS011;6409;56.294;14.480;2023-12-22T09:43:24;2.77;;;2.67;;
12689;SDS011;6409;56.294;14.480;2023-12-22T09:45:52;2.80;;;2.70;;
12689;SDS011;6409;56.294;14.480;2023-12-22T09:48:20;2.80;;;2.70;;
12689;SDS011;6409;56.294;14.480;2023-12-22T09:50:54;2.80;;;2.70;;
12689;SDS011;6409;56.294;14.480;2023-12-22T09:53:21;2.80;;;2.70;;
12689;SDS011;6409;56.294;14.480;2023-12-22T09:55:49;2.80;;;2.70;;
12689;SDS011;6409;56.294;14.480;2023-12-22T09:58:16;2.83;;;2.73;;
12689;SDS011;6409;56.294;14.480;2023-12-22T10:00:43;2.90;;;2.80;;
12689;SDS011;6409;56.294;14.480;2023-12-22T10:03:11;3.07;;;2.97;;
12689;SDS011;6409;56.294;14.480;2023-12-22T10:05:39;2.90;;;2.80;;
12689;SDS011;6409;56.294;14.480;2023-12-22T10:08:09;3.10;;;3.00;;
12689;SDS011;6409;56.294;14.480;2023-12-22T10:10:37;3.00;;;2.90;;
12689;SDS011;6409;56.294;14.480;2023-12-22T10:13:05;3.10;;;3.00;;
12689;SDS011;6409;56.294;14.480;2023-12-22T10:15:35;3.03;;;2.93;;
12689;SDS011;6409;56.294;14.480;2023-12-22T10:18:03;3.00;;;2.90;;
12689;SDS011;6409;56.294;14.480;2023-12-22T10:20:30;2.90;;;2.80;;
12689;SDS011;6409;56.294;14.480;2023-12-22T10:22:58;3.10;;;3.00;;
12689;SDS011;6409;56.294;14.480;2023-12-22T10:25:28;2.87;;;2.77;;
12689;SDS011;6409;56.294;14.480;2023-12-22T10:27:56;2.90;;;2.80;;
12689;SDS011;6409;56.294;14.480;2023-12-22T10:30:23;3.10;;;3.00;;
12689;SDS011;6409;56.294;14.480;2023-12-22T10:32:51;3.00;;;2.90;;
12689;SDS011;6409;56.294;14.480;2023-12-22T10:35:19;3.20;;;3.10;;
12689;SDS011;6409;56.294;14.480;2023-12-22T10:37:46;3.00;;;2.90;;
12689;SDS011;6409;56.294;14.480;2023-12-22T10:40:16;3.00;;;2.90;;
12689;SDS011;6409;56.294;14.480;2023-12-22T10:42:45;3.00;;;2.90;;
12689;SDS011;6409;56.294;14.480;2023-12-22T10:45:13;3.00;;;2.90;;
12689;SDS011;6409;56.294;14.480;2023-12-22T10:47:42;2.90;;;2.80;;
12689;SDS011;6409;56.294;14.480;2023-12-22T10:50:11;3.00;;;2.90;;
12689;SDS011;6409;56.294;14.480;2023-12-22T10:52:39;2.90;;;2.80;;
12689;SDS011;6409;56.294;14.480;2023-12-22T10:55:06;3.00;;;2.90;;
12689;SDS011;6409;56.294;14.480;2023-12-22T10:57:34;2.87;;;2.77;;
12689;SDS011;6409;56.294;14.480;2023-12-22T11:00:05;2.97;;;2.87;;
12689;SDS011;6409;56.294;14.480;2023-12-22T11:02:34;3.30;;;3.20;;
12689;SDS011;6409;56.294;14.480;2023-12-22T11:05:02;3.13;;;3.03;;
12689;SDS011;6409;56.294;14.480;2023-12-22T11:07:32;3.10;;;3.00;;
12689;SDS011;6409;56.294;14.480;2023-12-22T11:10:02;3.10;;;3.00;;
12689;SDS011;6409;56.294;14.480;2023-12-22T11:12:30;3.20;;;3.10;;
12689;SDS011;6409;56.294;14.480;2023-12-22T11:14:58;3.10;;;3.00;;
12689;SDS011;6409;56.294;14.480;2023-12-22T11:17:28;3.00;;;2.90;;
12689;SDS011;6409;56.294;14.480;2023-12-22T11:19:55;3.20;;;3.10;;
12689;SDS011;6409;56.294;14.480;2023-12-22T11:22:22;3.20;;;3.10;;
12689;SDS011;6409;56.294;14.480;2023-12-22T11:24:50;3.10;;;3.00;;
12689;SDS011;6409;56.294;14.480;2023-12-22T11:27:18;3.00;;;2.90;;
12689;SDS011;6409;56.294;14.480;2023-12-22T11:29:47;3.20;;;3.10;;
12689;SDS011;6409;56.294;14.480;2023-12-22T11:32:15;2.93;;;2.83;;
12689;SDS011;6409;56.294;14.480;2023-12-22T11:34:45;2.90;;;2.80;;
12689;SDS011;6409;56.294;14.480;2023-12-22T11:37:13;3.00;;;2.90;;
12689;SDS011;6409;56.294;14.480;2023-12-22T11:39:40;3.10;;;3.00;;
12689;SDS011;6409;56.294;14.480;2023-12-22T11:42:08;2.97;;;2.87;;
12689;SDS011;6409;56.294;14.480;2023-12-22T11:44:38;2.90;;;2.80;;
12689;SDS011;6409;56.294;14.480;2023-12-22T11:47:06;2.80;;;2.70;;
12689;SDS011;6409;56.294;14.480;2023-12-22T11:49:34;3.00;;;2.90;;
12689;SDS011;6409;56.294;14.480;2023-12-22T11:52:14;3.00;;;2.90;;
12689;SDS011;6409;56.294;14.480;2023-12-22T11:54:48;2.83;;;2.73;;
12689;SDS011;6409;56.294;14.480;2023-12-22T11:57:29;2.90;;;2.80;;
12689;SDS011;6409;56.294;14.480;2023-12-22T11:59:57;3.00;;;2.90;;
12689;SDS011;6409;56.294;14.480;2023-12-22T12:02:25;2.80;;;2.70;;
12689;SDS011;6409;56.294;14.480;2023-12-22T12:04:53;2.90;;;2.80;;
12689;SDS011;6409;56.294;14.480;2023-12-22T12:07:43;2.80;;;2.70;;
12689;SDS011;6409;56.294;14.480;2023-12-22T12:10:12;2.70;;;2.60;;
12689;SDS011;6409;56.294;14.480;2023-12-22T12:13:08;2.60;;;2.50;;
12689;SDS011;6409;56.294;14.480;2023-12-22T12:15:35;2.90;;;2.80;;
12689;SDS011;6409;56.294;14.480;2023-12-22T12:18:03;2.97;;;2.87;;
12689;SDS011;6409;56.294;14.480;2023-12-22T12:20:31;2.80;;;2.70;;
12689;SDS011;6409;56.294;14.480;2023-12-22T12:23:00;2.90;;;2.80;;
12689;SDS011;6409;56.294;14.480;2023-12-22T12:25:27;2.73;;;2.63;;
12689;SDS011;6409;56.294;14.480;2023-12-22T12:28:01;2.93;;;2.83;;
12689;SDS011;6409;56.294;14.480;2023-12-22T12:30:29;2.80;;;2.70;;
12689;SDS011;6409;56.294;14.480;2023-12-22T12:32:58;2.80;;;2.70;;
12689;SDS011;6409;56.294;14.480;2023-12-22T12:35:27;2.87;;;2.77;;
12689;SDS011;6409;56.294;14.480;2023-12-22T12:37:55;2.80;;;2.70;;
12689;SDS011;6409;56.294;14.480;2023-12-22T12:40:22;2.83;;;2.73;;
12689;SDS011;6409;56.294;14.480;2023-12-22T12:42:50;3.00;;;2.90;;
12689;SDS011;6409;56.294;14.480;2023-12-22T12:45:21;3.00;;;2.90;;
12689;SDS011;6409;56.294;14.480;2023-12-22T12:47:55;2.90;;;2.80;;
12689;SDS011;6409;56.294;14.480;2023-12-22T12:50:22;3.10;;;3.00;;
12689;SDS011;6409;56.294;14.480;2023-12-22T12:52:49;3.00;;;2.90;;
12689;SDS011;6409;56.294;14.480;2023-12-22T12:55:19;2.80;;;2.70;;
12689;SDS011;6409;56.294;14.480;2023-12-22T12:57:47;2.90;;;2.80;;
12689;SDS011;6409;56.294;14.480;2023-12-22T13:00:16;2.77;;;2.67;;
12689;SDS011;6409;56.294;14.480;2023-12-22T13:02:43;2.70;;;2.60;;
12689;SDS011;6409;56.294;14.480;2023-12-22T13:05:21;2.90;;;2.80;;
12689;SDS011;6409;56.294;14.480;2023-12-22T13:07:48;3.03;;;2.93;;
12689;SDS011;6409;56.294;14.480;2023-12-22T13:10:21;3.20;;;3.10;;
12689;SDS011;6409;56.294;14.480;2023-12-22T13:12:49;2.93;;;2.83;;
12689;SDS011;6409;56.294;14.480;2023-12-22T13:15:19;3.10;;;3.00;;
12689;SDS011;6409;56.294;14.480;2023-12-22T13:17:46;2.80;;;2.70;;
12689;SDS011;6409;56.294;14.480;2023-12-22T13:20:13;3.20;;;3.10;;
12689;SDS011;6409;56.294;14.480;2023-12-22T13:22:42;2.90;;;2.80;;
12689;SDS011;6409;56.294;14.480;2023-12-22T13:25:10;2.80;;;2.70;;
12689;SDS011;6409;56.294;14.480;2023-12-22T13:27:46;2.90;;;2.80;;
12689;SDS011;6409;56.294;14.480;2023-12-22T13:30:14;3.00;;;2.90;;
12689;SDS011;6409;56.294;14.480;2023-12-22T13:32:41;2.90;;;2.80;;
12689;SDS011;6409;56.294;14.480;2023-12-22T13:35:08;3.00;;;2.90;;
12689;SDS011;6409;56.294;14.480;2023-12-22T13:37:40;3.00;;;2.90;;
12689;SDS011;6409;56.294;14.480;2023-12-22T13:40:09;2.90;;;2.80;;
12689;SDS011;6409;56.294;14.480;2023-12-22T13:42:37;2.90;;;2.80;;
12689;SDS011;6409;56.294;14.480;2023-12-22T13:45:07;3.10;;;3.00;;
12689;SDS011;6409;56.294;14.480;2023-12-22T13:47:39;3.20;;;3.10;;
12689;SDS011;6409;56.294;14.480;2023-12-22T13:50:13;3.10;;;3.00;;
12689;SDS011;6409;56.294;14.480;2023-12-22T13:52:40;3.07;;;2.97;;
12689;SDS011;6409;56.294;14.480;2023-12-22T13:55:10;2.60;;;2.50;;
12689;SDS011;6409;56.294;14.480;2023-12-22T13:57:37;2.70;;;2.60;;
12689;SDS011;6409;56.294;14.480;2023-12-22T14:02:53;2.93;;;2.83;;
12689;SDS011;6409;56.294;14.480;2023-12-22T14:05:21;2.70;;;2.60;;
12689;SDS011;6409;56.294;14.480;2023-12-22T14:07:49;2.73;;;2.63;;
12689;SDS011;6409;56.294;14.480;2023-12-22T14:10:16;3.10;;;3.00;;
12689;SDS011;6409;56.294;14.480;2023-12-22T14:12:44;3.10;;;3.00;;
12689;SDS011;6409;56.294;14.480;2023-12-22T14:15:11;3.00;;;2.90;;
12689;SDS011;6409;56.294;14.480;2023-12-22T14:17:38;2.90;;;2.80;;
12689;SDS011;6409;56.294;14.480;2023-12-22T14:20:07;2.50;;;2.40;;
12689;SDS011;6409;56.294;14.480;2023-12-22T14:22:36;2.90;;;2.80;;
12689;SDS011;6409;56.294;14.480;2023-12-22T14:25:05;3.20;;;3.10;;
12689;SDS011;6409;56.294;14.480;2023-12-22T14:27:34;3.10;;;3.00;;
12689;SDS011;6409;56.294;14.480;2023-12-22T14:30:01;3.23;;;3.13;;
12689;SDS011;6409;56.294;14.480;2023-12-22T14:32:28;3.10;;;3.00;;
12689;SDS011;6409;56.294;14.480;2023-12-22T14:34:56;3.00;;;2.90;;
12689;SDS011;6409;56.294;14.480;2023-12-22T14:37:23;3.00;;;2.90;;
12689;SDS011;6409;56.294;14.480;2023-12-22T14:39:51;3.00;;;2.90;;
12689;SDS011;6409;56.294;14.480;2023-12-22T14:42:20;3.10;;;3.00;;
12689;SDS011;6409;56.294;14.480;2023-12-22T14:44:47;3.10;;;3.00;;
12689;SDS011;6409;56.294;14.480;2023-12-22T14:47:14;3.20;;;3.10;;
12689;SDS011;6409;56.294;14.480;2023-12-22T14:49:41;2.90;;;2.80;;
12689;SDS011;6409;56.294;14.480;2023-12-22T14:52:08;2.80;;;2.70;;
12689;SDS011;6409;56.294;14.480;2023-12-22T14:54:35;2.70;;;2.60;;
12689;SDS011;6409;56.294;14.480;2023-12-22T14:57:02;2.97;;;2.87;;